Time;durP1;ratioP1;P1;durP2;ratioP2;P2;SDS_P1;SDS_P2;PMS_P1;PMS_P2;Temp;Humidity;BMP_temperature;BMP_pressure;BME280_temperature;BME280_humidity;BME280_pressure;Samples;Min_cycle;Max_cycle;Signal;HPM_P1;HPM_P2
2022/03/22 00:01:26;;;;;;;26.40;17.23;;;128.30;1356.80;;;;;;4977741;28;20073;-89
2022/03/22 00:03:52;;;;;;;30.67;16.88;;;128.30;1356.80;;;;;;4979298;28;20058;-89
2022/03/22 00:06:18;;;;;;;28.65;17.90;;;128.30;1356.80;;;;;;4986699;28;20061;-89
2022/03/22 00:08:45;;;;;;;26.50;17.23;;;128.30;1356.80;;;;;;4979142;28;20505;-89
2022/03/22 00:11:11;;;;;;;33.03;17.98;;;128.30;1356.80;;;;;;4974919;28;20033;-89
2022/03/22 00:13:37;;;;;;;28.13;17.35;;;128.30;1356.80;;;;;;4994404;28;20037;-88
2022/03/22 00:16:03;;;;;;;34.83;19.60;;;128.30;1382.40;;;;;;4993790;28;20027;-91
2022/03/22 00:18:29;;;;;;;32.08;18.45;;;128.30;1382.40;;;;;;4973426;28;20030;-90
2022/03/22 00:20:56;;;;;;;30.67;18.20;;;128.10;1408.00;;;;;;4979978;28;20026;-91
2022/03/22 00:23:22;;;;;;;30.83;18.63;;;128.10;1408.00;;;;;;4976327;28;20049;-90
2022/03/22 00:25:48;;;;;;;28.90;18.95;;;128.00;1408.00;;;;;;4989542;28;20035;-91
2022/03/22 00:28:14;;;;;;;28.23;19.02;;;128.00;1408.00;;;;;;4988342;28;20031;-87
2022/03/22 00:30:40;;;;;;;27.25;16.25;;;128.00;1408.00;;;;;;4986542;28;20019;-88
2022/03/22 00:33:07;;;;;;;28.00;18.20;;;128.00;1382.40;;;;;;4985347;28;20109;-90
2022/03/22 00:35:36;;;;;;;29.50;17.65;;;128.00;1408.00;;;;;;4993205;28;20022;-89
2022/03/22 00:38:04;;;;;;;25.48;17.00;;;128.00;1408.00;;;;;;4990173;28;20125;-91
2022/03/22 00:40:30;;;;;;;26.25;17.38;;;128.00;1408.00;;;;;;4987068;28;20113;-90
2022/03/22 00:42:57;;;;;;;29.92;18.92;;;128.00;1408.00;;;;;;4989971;28;20126;-88
2022/03/22 00:45:27;;;;;;;30.05;16.55;;;128.00;1408.00;;;;;;4989305;28;20065;-89
2022/03/22 00:47:54;;;;;;;30.67;17.88;;;103.30;1382.40;;;;;;4992234;28;20034;-89
2022/03/22 00:50:28;;;;;;;28.70;17.20;;;103.30;1382.40;;;;;;4990205;28;20058;-89
2022/03/22 00:52:57;;;;;;;29.88;18.52;;;103.20;1382.40;;;;;;4989410;28;20077;-88
2022/03/22 00:55:24;;;;;;;30.30;17.95;;;103.20;1382.40;;;;;;4966603;28;20487;-89
2022/03/22 00:57:55;;;;;;;30.98;17.70;;;103.20;1382.40;;;;;;4978191;28;20080;-89
2022/03/22 01:00:24;;;;;;;26.15;16.30;;;103.20;1382.40;;;;;;4989977;28;20124;-89
2022/03/22 01:02:52;;;;;;;29.27;17.63;;;103.20;1382.40;;;;;;4974273;28;20033;-86
2022/03/22 01:05:19;;;;;;;30.25;17.25;;;103.10;1382.40;;;;;;4995995;28;20033;-89
2022/03/22 01:07:51;;;;;;;29.40;18.40;;;103.20;1382.40;;;;;;5001856;28;20066;-88
2022/03/22 01:10:19;;;;;;;27.80;17.25;;;103.20;1382.40;;;;;;4994552;28;20029;-88
2022/03/22 01:12:46;;;;;;;28.25;16.48;;;103.20;1382.40;;;;;;4995294;28;20030;-88
2022/03/22 01:15:21;;;;;;;28.17;15.73;;;103.10;1382.40;;;;;;4987179;28;20117;-89
2022/03/22 01:17:54;;;;;;;37.15;20.67;;;103.10;1382.40;;;;;;4974881;28;20239;-90
2022/03/22 01:20:22;;;;;;;36.78;19.63;;;103.10;1382.40;;;;;;4974724;28;20117;-88
2022/03/22 01:22:49;;;;;;;25.90;17.67;;;103.00;1408.00;;;;;;4974198;28;20125;-89
2022/03/22 01:25:18;;;;;;;34.58;19.48;;;103.00;1408.00;;;;;;4975838;28;20070;-88
2022/03/22 01:27:46;;;;;;;26.05;16.35;;;102.90;1408.00;;;;;;4976045;28;20033;-89
2022/03/22 01:30:15;;;;;;;26.83;16.10;;;102.90;1408.00;;;;;;4974587;28;20027;-88
2022/03/22 01:32:41;;;;;;;29.77;17.48;;;102.90;1408.00;;;;;;4974507;28;20023;-88
2022/03/22 01:35:09;;;;;;;31.13;17.92;;;102.90;1408.00;;;;;;4974956;28;20114;-87
2022/03/22 01:37:35;;;;;;;26.88;16.17;;;102.90;1408.00;;;;;;4974671;28;20027;-87
2022/03/22 01:40:01;;;;;;;29.70;15.68;;;102.90;1408.00;;;;;;4975106;28;20416;-86
2022/03/22 01:42:27;;;;;;;27.00;17.10;;;102.90;1408.00;;;;;;4990251;28;20039;-87
2022/03/22 01:44:53;;;;;;;32.45;16.83;;;102.80;1408.00;;;;;;4974293;28;20122;-87
2022/03/22 01:47:25;;;;;;;27.00;16.25;;;102.80;1433.60;;;;;;4974322;28;20108;-87
2022/03/22 01:49:52;;;;;;;27.42;16.48;;;102.80;1433.60;;;;;;4974308;28;20026;-87
2022/03/22 01:52:21;;;;;;;29.52;16.55;;;102.70;1433.60;;;;;;4974115;28;20050;-88
2022/03/22 01:54:50;;;;;;;29.17;16.27;;;102.60;1433.60;;;;;;4975376;28;20098;-86
2022/03/22 01:57:17;;;;;;;28.25;16.38;;;102.60;1433.60;;;;;;4974095;28;20050;-87
2022/03/22 01:59:44;;;;;;;25.42;15.65;;;102.60;1433.60;;;;;;4987381;28;20053;-87
2022/03/22 02:07:41;;;;;;;28.50;17.00;;;102.60;1433.60;;;;;;4993756;28;20395;-88
2022/03/22 02:10:08;;;;;;;24.15;15.52;;;102.50;1459.20;;;;;;4993181;28;20883;-88
2022/03/22 02:12:34;;;;;;;27.77;17.17;;;102.50;1459.20;;;;;;4993203;28;20022;-88
2022/03/22 02:15:01;;;;;;;29.58;19.25;;;102.40;1459.20;;;;;;4977264;28;20026;-88
2022/03/22 02:17:27;;;;;;;28.88;17.77;;;102.40;1484.80;;;;;;4993163;28;20037;-89
2022/03/22 02:19:53;;;;;;;34.08;18.48;;;77.70;1484.80;;;;;;4993429;28;20113;-88
2022/03/22 02:22:24;;;;;;;28.52;17.27;;;77.60;1484.80;;;;;;4993894;28;20034;-89
2022/03/22 02:24:50;;;;;;;26.25;16.75;;;77.60;1484.80;;;;;;4977320;28;20069;-88
2022/03/22 02:27:16;;;;;;;31.52;18.73;;;77.60;1484.80;;;;;;4993865;28;20026;-88
2022/03/22 02:29:43;;;;;;;27.83;15.85;;;77.50;1484.80;;;;;;4993620;28;20029;-89
2022/03/22 02:32:08;;;;;;;26.17;15.77;;;77.50;1484.80;;;;;;4977364;28;20027;-89
2022/03/22 02:34:39;;;;;;;28.10;16.88;;;77.40;1484.80;;;;;;4975311;28;20026;-89
2022/03/22 02:37:05;;;;;;;30.33;17.95;;;77.40;1510.40;;;;;;4976728;28;20053;-89
2022/03/22 02:39:32;;;;;;;33.65;17.50;;;77.40;1484.80;;;;;;4976285;28;20122;-89
2022/03/22 02:41:58;;;;;;;27.92;16.77;;;77.50;1510.40;;;;;;4992463;28;20074;-89
2022/03/22 02:44:23;;;;;;;20.85;16.08;;;77.30;1510.40;;;;;;4991858;28;20026;-89
2022/03/22 02:46:50;;;;;;;30.80;17.73;;;77.30;1510.40;;;;;;4991868;28;20089;-89
2022/03/22 02:49:15;;;;;;;30.88;17.95;;;77.20;1510.40;;;;;;4992809;28;20113;-89
2022/03/22 02:51:41;;;;;;;27.27;16.88;;;77.20;1510.40;;;;;;4992675;28;20146;-88
2022/03/22 02:54:07;;;;;;;28.48;16.15;;;77.20;1510.40;;;;;;4992935;28;20022;-88
2022/03/22 02:56:33;;;;;;;36.80;20.38;;;77.20;1510.40;;;;;;4992566;28;20050;-89
2022/03/22 02:59:00;;;;;;;31.38;16.05;;;77.20;1536.00;;;;;;4992744;28;20553;-89
2022/03/22 03:01:26;;;;;;;36.67;17.45;;;77.10;1536.00;;;;;;4976578;28;20031;-89
2022/03/22 03:03:52;;;;;;;30.90;18.58;;;77.10;1536.00;;;;;;4992846;28;20081;-89
2022/03/22 03:06:18;;;;;;;30.35;17.00;;;77.10;1536.00;;;;;;4992563;28;20084;-89
2022/03/22 03:08:44;;;;;;;28.42;18.02;;;77.10;1536.00;;;;;;4992482;28;20026;-90
2022/03/22 03:11:10;;;;;;;30.58;19.40;;;77.10;1536.00;;;;;;4992718;28;20033;-89
2022/03/22 03:16:19;;;;;;;33.05;19.83;;;77.10;1536.00;;;;;;4994211;28;20049;-90
2022/03/22 03:18:45;;;;;;;32.50;19.77;;;77.10;1536.00;;;;;;4975892;28;20480;-90
2022/03/22 03:21:11;;;;;;;34.17;19.15;;;77.00;1536.00;;;;;;4992795;28;20034;-89
2022/03/22 03:23:37;;;;;;;40.20;21.05;;;77.00;1561.60;;;;;;4992394;28;20056;-89
2022/03/22 03:26:02;;;;;;;40.00;21.40;;;77.00;1561.60;;;;;;4992842;28;20027;-90
2022/03/22 03:28:28;;;;;;;35.10;18.58;;;77.00;1536.00;;;;;;4968093;28;20483;-90
2022/03/22 03:30:54;;;;;;;29.13;17.65;;;76.90;1536.00;;;;;;4983491;28;20030;-89
2022/03/22 03:33:20;;;;;;;31.98;17.02;;;76.80;1561.60;;;;;;4989557;28;20032;-89
2022/03/22 03:35:45;;;;;;;25.73;16.70;;;76.80;1561.60;;;;;;4989726;28;20034;-89
2022/03/22 03:38:11;;;;;;;29.73;16.08;;;76.80;1561.60;;;;;;4988720;28;20483;-90
2022/03/22 03:43:21;;;;;;;35.28;17.70;;;76.80;1561.60;;;;;;4962864;28;20069;-89
2022/03/22 03:48:32;;;;;;;33.35;18.08;;;52.00;1587.20;;;;;;4958659;29;20087;-89
2022/03/22 03:50:58;;;;;;;32.80;17.95;;;52.00;1587.20;;;;;;4958843;29;20034;-89
2022/03/22 03:53:24;;;;;;;28.77;17.00;;;52.00;1587.20;;;;;;4957725;29;20027;-89
2022/03/22 03:55:50;;;;;;;39.78;20.63;;;51.90;1612.80;;;;;;4957824;29;20472;-89
2022/03/22 03:58:15;;;;;;;31.48;19.27;;;51.90;1612.80;;;;;;4957583;29;20031;-90
2022/03/22 04:00:41;;;;;;;31.73;19.58;;;51.70;1612.80;;;;;;4957122;29;20028;-89
2022/03/22 04:03:07;;;;;;;38.35;20.60;;;51.80;1638.40;;;;;;4957589;29;20027;-89
2022/03/22 04:05:33;;;;;;;28.77;18.02;;;51.70;1638.40;;;;;;4957019;29;20038;-89
2022/03/22 04:07:58;;;;;;;35.33;19.30;;;51.70;1638.40;;;;;;4957372;29;20114;-89
2022/03/22 04:10:26;;;;;;;34.53;17.75;;;51.70;1638.40;;;;;;4956747;29;20044;-89
2022/03/22 04:12:51;;;;;;;35.55;20.30;;;51.70;1638.40;;;;;;4956933;29;20090;-89
2022/03/22 04:15:18;;;;;;;33.45;20.15;;;51.60;1638.40;;;;;;4962852;28;20042;-87
2022/03/22 04:17:43;;;;;;;35.05;19.05;;;51.60;1638.40;;;;;;4960776;28;20057;-88
2022/03/22 04:20:10;;;;;;;45.40;20.20;;;51.50;1664.00;;;;;;4959916;28;20058;-88
2022/03/22 04:22:36;;;;;;;37.75;20.10;;;51.40;1664.00;;;;;;4959794;28;20069;-89
2022/03/22 04:25:02;;;;;;;36.65;19.38;;;51.40;1638.40;;;;;;4959879;28;20122;-88
2022/03/22 04:32:57;;;;;;;46.28;22.35;;;51.30;1664.00;;;;;;4977000;28;20037;-89
2022/03/22 04:35:27;;;;;;;39.60;20.75;;;51.30;1664.00;;;;;;4960212;28;20110;-89
2022/03/22 04:37:55;;;;;;;37.17;19.65;;;51.30;1664.00;;;;;;4959807;28;20038;-89
2022/03/22 04:40:21;;;;;;;36.72;18.15;;;51.40;1664.00;;;;;;4980561;28;20475;-89
2022/03/22 04:42:49;;;;;;;30.42;18.27;;;51.40;1638.40;;;;;;4972340;28;20078;-88
2022/03/22 04:45:16;;;;;;;31.60;17.75;;;51.40;1638.40;;;;;;5014575;28;20037;-88
2022/03/22 04:47:44;;;;;;;29.58;17.15;;;51.40;1638.40;;;;;;4998288;28;20030;-88
2022/03/22 04:50:10;;;;;;;26.52;17.05;;;51.40;1638.40;;;;;;4998087;28;20474;-90
2022/03/22 04:58:04;;;;;;;30.88;19.23;;;51.50;1638.40;;;;;;5015204;28;20038;-90
2022/03/22 05:00:30;;;;;;;32.97;18.77;;;51.50;1612.80;;;;;;5013928;28;20037;-89
2022/03/22 05:02:56;;;;;;;28.80;18.42;;;51.60;1612.80;;;;;;4997983;28;20038;-90
2022/03/22 05:08:08;;;;;;;32.72;18.65;;;51.70;1638.40;;;;;;4965549;28;20039;-90
2022/03/22 05:10:35;;;;;;;31.63;18.05;;;51.80;1638.40;;;;;;4952003;29;20034;-90
2022/03/22 05:13:01;;;;;;;26.13;18.08;;;51.70;1638.40;;;;;;4952431;28;20079;-89
2022/03/22 05:15:27;;;;;;;34.10;20.10;;;51.60;1638.40;;;;;;4938581;29;20034;-88
2022/03/22 05:17:53;;;;;;;31.95;17.65;;;51.60;1638.40;;;;;;4954636;29;20027;-89
2022/03/22 05:20:19;;;;;;;29.60;17.83;;;51.80;1664.00;;;;;;4940535;29;20059;-89
2022/03/22 05:22:45;;;;;;;35.75;22.58;;;51.80;1638.40;;;;;;4970908;28;20035;-88
2022/03/22 05:25:11;;;;;;;35.38;22.13;;;51.70;1638.40;;;;;;4971546;28;20035;-87
2022/03/22 05:27:37;;;;;;;36.40;20.85;;;51.80;1638.40;;;;;;4970335;28;20067;-88
2022/03/22 05:30:07;;;;;;;34.47;19.98;;;51.80;1638.40;;;;;;4955018;29;20023;-88
2022/03/22 05:32:34;;;;;;;36.33;21.25;;;51.90;1638.40;;;;;;4938460;29;20032;-89
2022/03/22 05:35:00;;;;;;;40.90;22.05;;;51.90;1638.40;;;;;;4957939;28;20097;-90
2022/03/22 05:37:25;;;;;;;37.50;20.67;;;52.00;1638.40;;;;;;4981590;28;20500;-88
2022/03/22 05:39:51;;;;;;;41.45;24.42;;;52.00;1638.40;;;;;;4973793;28;20043;-89
2022/03/22 05:42:17;;;;;;;46.10;22.67;;;52.10;1638.40;;;;;;4957515;28;20109;-88
2022/03/22 05:44:44;;;;;;;44.72;25.67;;;76.80;1612.80;;;;;;4965969;28;20046;-88
2022/03/22 05:47:11;;;;;;;41.00;23.45;;;76.80;1612.80;;;;;;4995007;28;20030;-88
2022/03/22 05:49:37;;;;;;;40.30;22.50;;;76.80;1612.80;;;;;;4994594;28;20026;-88
2022/03/22 05:52:07;;;;;;;38.42;21.20;;;76.90;1612.80;;;;;;4979256;28;20053;-88
2022/03/22 05:54:34;;;;;;;45.58;24.35;;;77.10;1612.80;;;;;;5011002;28;20538;-89
2022/03/22 05:56:59;;;;;;;39.72;20.08;;;76.90;1612.80;;;;;;4996845;28;20041;-86
2022/03/22 05:59:25;;;;;;;45.03;20.98;;;76.90;1612.80;;;;;;5007891;28;20026;-88
2022/03/22 06:01:51;;;;;;;33.65;18.27;;;76.90;1612.80;;;;;;4989076;28;20034;-87
2022/03/22 06:04:19;;;;;;;30.85;18.23;;;77.00;1612.80;;;;;;4979750;28;20142;-89
2022/03/22 06:06:47;;;;;;;35.67;18.05;;;77.00;1587.20;;;;;;4999698;28;20093;-88
2022/03/22 06:09:13;;;;;;;31.73;17.88;;;77.00;1612.80;;;;;;5004473;28;20032;-88
2022/03/22 06:11:39;;;;;;;38.50;18.63;;;77.00;1612.80;;;;;;4984014;28;20034;-87
2022/03/22 06:14:05;;;;;;;29.75;18.38;;;77.00;1612.80;;;;;;5004238;28;20033;-89
2022/03/22 06:16:31;;;;;;;28.73;17.77;;;77.10;1638.40;;;;;;5004640;28;20042;-88
2022/03/22 06:18:58;;;;;;;29.10;18.27;;;77.30;1638.40;;;;;;5005538;28;20019;-89
2022/03/22 06:21:24;;;;;;;30.85;18.85;;;77.40;1612.80;;;;;;4988732;28;20041;-89
2022/03/22 06:23:51;;;;;;;38.45;21.75;;;77.50;1612.80;;;;;;4992743;28;20117;-88
2022/03/22 06:26:16;;;;;;;31.92;21.45;;;77.60;1612.80;;;;;;4986158;28;20030;-88
2022/03/22 06:28:43;;;;;;;33.50;19.13;;;102.40;1612.80;;;;;;4992207;28;20025;-88
2022/03/22 06:31:09;;;;;;;35.58;21.20;;;102.50;1612.80;;;;;;5002882;28;20034;-87
2022/03/22 06:33:35;;;;;;;32.35;19.40;;;102.60;1612.80;;;;;;5002134;28;20029;-87
2022/03/22 06:36:01;;;;;;;34.28;21.05;;;102.80;1612.80;;;;;;4993956;28;20097;-87
2022/03/22 06:38:26;;;;;;;32.85;21.88;;;103.00;1612.80;;;;;;4999808;28;20542;-88
2022/03/22 06:40:53;;;;;;;35.17;19.80;;;103.10;1612.80;;;;;;4991427;28;20026;-87
2022/03/22 06:43:20;;;;;;;37.42;20.52;;;103.30;1587.20;;;;;;5002507;28;20133;-89
2022/03/22 06:45:47;;;;;;;30.48;20.00;;;128.50;1612.80;;;;;;4986977;28;20038;-86
2022/03/22 06:48:15;;;;;;;33.33;20.08;;;128.30;1587.20;;;;;;5011053;28;20508;-89
2022/03/22 06:50:43;;;;;;;34.15;21.02;;;128.60;1587.20;;;;;;4995638;28;20367;-88
2022/03/22 06:53:09;;;;;;;43.20;23.98;;;128.80;1587.20;;;;;;4978961;28;20031;-88
2022/03/22 06:55:36;;;;;;;31.90;20.60;;;153.80;1561.60;;;;;;4976614;28;20022;-88
2022/03/22 06:58:03;;;;;;;48.95;24.80;;;154.10;1536.00;;;;;;4992820;28;20109;-87
2022/03/22 07:00:31;;;;;;;40.60;22.75;;;154.30;1536.00;;;;;;4993557;28;20030;-87
2022/03/22 07:02:57;;;;;;;41.15;23.95;;;179.20;1510.40;;;;;;4988078;28;20085;-87
2022/03/22 07:05:23;;;;;;;34.58;21.20;;;179.40;1510.40;;;;;;5013090;28;20101;-87
2022/03/22 07:07:49;;;;;;;32.65;21.25;;;179.70;1484.80;;;;;;5013331;28;20101;-87
2022/03/22 07:10:18;;;;;;;32.95;21.23;;;180.00;1484.80;;;;;;4995582;28;20490;-87
2022/03/22 07:12:48;;;;;;;31.48;20.10;;;204.80;1459.20;;;;;;5011182;28;20026;-85
2022/03/22 07:15:14;;;;;;;32.67;21.48;;;205.10;1459.20;;;;;;4989972;28;20108;-86
2022/03/22 07:17:40;;;;;;;39.80;21.45;;;205.30;1408.00;;;;;;4989395;28;20058;-86
2022/03/22 07:20:07;;;;;;;31.33;21.90;;;205.50;1408.00;;;;;;4983389;28;20431;-86
2022/03/22 07:22:33;;;;;;;36.33;22.38;;;230.40;1408.00;;;;;;5003847;28;20030;-87
2022/03/22 07:24:58;;;;;;;33.42;21.90;;;230.60;1382.40;;;;;;4988068;28;20088;-87
2022/03/22 07:27:24;;;;;;;30.67;21.25;;;230.90;1382.40;;;;;;4986496;28;20089;-87
2022/03/22 07:29:51;;;;;;;35.85;22.83;;;231.20;1356.80;;;;;;5003671;28;20089;-87
2022/03/22 07:32:17;;;;;;;31.48;22.08;;;256.00;1356.80;;;;;;5002663;28;20026;-88
2022/03/22 07:34:43;;;;;;;31.38;21.25;;;256.40;1331.20;;;;;;5002745;28;20550;-87
2022/03/22 07:37:09;;;;;;;33.08;21.05;;;256.60;1305.60;;;;;;5008653;28;20061;-87
2022/03/22 07:39:35;;;;;;;38.78;21.48;;;281.60;1305.60;;;;;;4985897;28;20059;-87
2022/03/22 07:42:01;;;;;;;37.72;22.02;;;281.70;1280.00;;;;;;5004278;28;20121;-86
2022/03/22 07:44:31;;;;;;;34.78;20.55;;;281.90;1280.00;;;;;;4964121;28;20042;-87
2022/03/22 07:46:57;;;;;;;33.45;21.00;;;282.20;1254.40;;;;;;4960311;28;20059;-85
2022/03/22 07:54:51;;;;;;;37.22;19.15;;;307.80;1203.20;;;;;;4959521;28;20033;-86
2022/03/22 07:57:17;;;;;;;26.83;17.05;;;308.00;1177.60;;;;;;4961663;28;20026;-86
2022/03/22 07:59:42;;;;;;;28.58;17.40;;;332.90;1203.20;;;;;;4974160;28;20066;-87
2022/03/22 08:02:08;;;;;;;32.45;18.30;;;333.20;1177.60;;;;;;4959551;28;20129;-85
2022/03/22 08:04:34;;;;;;;36.78;18.20;;;333.30;1152.00;;;;;;4959280;28;20462;-86
2022/03/22 08:06:59;;;;;;;41.13;19.10;;;333.70;1152.00;;;;;;4975354;28;20033;-84
2022/03/22 08:09:25;;;;;;;23.73;17.10;;;358.50;1126.40;;;;;;4975711;28;20059;-85
2022/03/22 08:11:51;;;;;;;22.90;16.67;;;358.60;1100.80;;;;;;4976976;28;20027;-85
2022/03/22 08:14:19;;;;;;;23.65;16.33;;;358.70;1100.80;;;;;;4988784;28;20038;-85
2022/03/22 08:16:45;;;;;;;30.92;16.25;;;358.90;1100.80;;;;;;4957528;28;20035;-85
2022/03/22 08:19:17;;;;;;;23.45;15.95;;;359.00;1100.80;;;;;;4956151;28;20039;-86
2022/03/22 08:21:43;;;;;;;30.83;17.27;;;359.20;1075.20;;;;;;4959611;28;20377;-85
2022/03/22 08:24:09;;;;;;;31.10;18.10;;;384.00;1075.20;;;;;;4976597;28;20022;-85
2022/03/22 08:26:36;;;;;;;22.95;15.43;;;384.10;1049.60;;;;;;4959461;28;20082;-86
2022/03/22 08:29:03;;;;;;;24.60;16.10;;;384.40;1024.00;;;;;;4958917;28;20031;-86
2022/03/22 08:31:29;;;;;;;29.92;16.73;;;384.60;1024.00;;;;;;4973488;28;20031;-84
2022/03/22 08:33:56;;;;;;;21.30;14.73;;;384.90;1024.00;;;;;;4975324;28;20050;-86
2022/03/22 08:36:23;;;;;;;23.52;16.63;;;384.90;972.80;;;;;;4975137;28;20023;-86
2022/03/22 08:38:49;;;;;;;31.38;16.98;;;409.60;1024.00;;;;;;4976537;28;20077;-85
2022/03/22 08:41:15;;;;;;;30.83;17.33;;;410.00;998.40;;;;;;4976139;28;20109;-85
2022/03/22 08:43:41;;;;;;;26.48;16.13;;;410.00;998.40;;;;;;4978012;28;20050;-85
2022/03/22 08:46:07;;;;;;;29.98;16.17;;;410.00;998.40;;;;;;4999481;28;20030;-86
2022/03/22 08:48:34;;;;;;;32.65;16.80;;;410.10;998.40;;;;;;4991461;28;20034;-85
2022/03/22 08:51:00;;;;;;;29.05;16.20;;;435.20;998.40;;;;;;5007325;28;20058;-85
2022/03/22 08:53:26;;;;;;;24.83;15.65;;;435.20;972.80;;;;;;4986674;28;20053;-85
2022/03/22 08:55:52;;;;;;;37.13;15.88;;;435.40;972.80;;;;;;5000264;28;20026;-85
2022/03/22 08:58:18;;;;;;;32.65;16.98;;;435.50;947.20;;;;;;5002251;28;20121;-85
2022/03/22 09:00:48;;;;;;;21.30;13.98;;;435.90;947.20;;;;;;5008045;28;20072;-85
2022/03/22 09:03:14;;;;;;;20.92;14.60;;;435.90;921.60;;;;;;5008608;28;20022;-85
2022/03/22 09:08:25;;;;;;;23.75;14.40;;;460.80;972.80;;;;;;5001805;28;20096;-85
2022/03/22 09:10:52;;;;;;;19.05;14.73;;;460.80;947.20;;;;;;4994806;28;20054;-84
2022/03/22 09:13:19;;;;;;;20.05;13.15;;;460.90;947.20;;;;;;4995192;28;20026;-85
2022/03/22 09:15:46;;;;;;;19.90;14.65;;;461.00;947.20;;;;;;4985106;28;20069;-86
2022/03/22 09:18:16;;;;;;;21.73;13.38;;;460.90;972.80;;;;;;5000400;28;20023;-86
2022/03/22 09:20:43;;;;;;;21.17;15.05;;;460.80;947.20;;;;;;4990683;28;20031;-86
2022/03/22 09:23:09;;;;;;;22.67;14.30;;;461.20;947.20;;;;;;4964202;28;20030;-87
2022/03/22 09:25:36;;;;;;;23.20;15.23;;;486.40;921.60;;;;;;5000113;28;20038;-87
2022/03/22 09:28:05;;;;;;;18.65;12.82;;;486.40;921.60;;;;;;4999814;28;20054;-87
2022/03/22 09:30:32;;;;;;;22.23;15.07;;;486.40;947.20;;;;;;4993326;28;20030;-86
2022/03/22 09:32:58;;;;;;;24.40;13.75;;;486.60;921.60;;;;;;4990639;28;20088;-87
2022/03/22 09:35:24;;;;;;;21.92;14.38;;;486.60;921.60;;;;;;4988496;28;20442;-85
2022/03/22 09:37:50;;;;;;;21.70;13.82;;;486.60;921.60;;;;;;5000205;28;20029;-86
2022/03/22 09:40:18;;;;;;;18.25;13.77;;;486.80;921.60;;;;;;4994422;28;20380;-86
2022/03/22 09:42:45;;;;;;;24.48;13.80;;;487.00;896.00;;;;;;5002634;28;20076;-86
2022/03/22 09:45:14;;;;;;;18.80;14.15;;;486.60;896.00;;;;;;5002711;28;20030;-87
2022/03/22 09:47:42;;;;;;;18.98;13.57;;;487.20;870.40;;;;;;4995460;28;20590;-87
2022/03/22 09:50:09;;;;;;;20.42;13.38;;;487.30;896.00;;;;;;5000529;28;20032;-87
2022/03/22 09:52:35;;;;;;;18.63;13.77;;;512.20;870.40;;;;;;4989786;28;20030;-88
2022/03/22 09:55:01;;;;;;;19.02;13.65;;;512.50;870.40;;;;;;4992399;28;20036;-87
2022/03/22 09:57:28;;;;;;;19.98;14.25;;;512.70;819.20;;;;;;4995477;28;20112;-87
2022/03/22 09:59:53;;;;;;;21.17;13.32;;;512.80;844.80;;;;;;4990560;28;20025;-87
2022/03/22 10:02:30;;;;;;;22.15;14.00;;;512.70;844.80;;;;;;4991799;28;20022;-88
2022/03/22 10:04:56;;;;;;;18.20;13.57;;;512.70;844.80;;;;;;4985937;28;20512;-88
2022/03/22 10:07:23;;;;;;;16.90;12.80;;;538.00;844.80;;;;;;4993329;28;20112;-87
2022/03/22 10:10:07;;;;;;;21.65;13.27;;;538.10;844.80;;;;;;4992211;28;20490;-78
2022/03/22 10:12:35;;;;;;;14.32;11.57;;;538.20;844.80;;;;;;4992833;28;20407;-80
2022/03/22 10:15:15;;;;;;;22.83;11.57;;;538.10;844.80;;;;;;4991790;28;20045;-79
2022/03/22 10:17:43;;;;;;;24.30;13.55;;;563.20;844.80;;;;;;4994707;28;20124;-82
2022/03/22 10:20:20;;;;;;;29.85;15.88;;;563.40;844.80;;;;;;5003955;28;20499;-81
2022/03/22 10:22:54;;;;;;;26.55;13.70;;;563.40;844.80;;;;;;4972793;28;20038;-82
2022/03/22 10:25:20;;;;;;;17.02;12.30;;;563.70;819.20;;;;;;4977029;28;20022;-83
2022/03/22 10:27:46;;;;;;;18.27;13.50;;;564.00;819.20;;;;;;5000142;28;20041;-83
2022/03/22 10:30:12;;;;;;;21.63;13.40;;;563.80;819.20;;;;;;5000355;28;20015;-83
2022/03/22 10:32:40;;;;;;;15.30;11.70;;;563.30;844.80;;;;;;4981929;28;20049;-83
2022/03/22 10:35:20;;;;;;;21.60;15.25;;;563.80;819.20;;;;;;5002390;28;20470;-82
2022/03/22 10:37:48;;;;;;;23.40;13.07;;;563.80;819.20;;;;;;5003313;28;20018;-83
2022/03/22 10:40:23;;;;;;;18.73;12.20;;;588.90;793.60;;;;;;4993892;28;20030;-80
2022/03/22 10:42:54;;;;;;;18.77;12.70;;;588.90;793.60;;;;;;5007039;28;20066;-82
2022/03/22 10:45:20;;;;;;;17.90;12.63;;;563.90;819.20;;;;;;4991712;28;20026;-82
2022/03/22 10:47:46;;;;;;;18.08;13.50;;;589.30;768.00;;;;;;5010718;28;20048;-83
2022/03/22 10:50:12;;;;;;;19.27;12.10;;;588.90;793.60;;;;;;4992114;28;20026;-83
2022/03/22 10:52:49;;;;;;;17.40;12.93;;;589.10;793.60;;;;;;5002862;28;20026;-82
2022/03/22 10:55:19;;;;;;;15.35;11.75;;;589.30;793.60;;;;;;4991392;28;20391;-83
2022/03/22 10:57:47;;;;;;;18.98;12.30;;;589.30;793.60;;;;;;4989011;28;20363;-83
2022/03/22 11:00:14;;;;;;;16.13;12.95;;;589.40;793.60;;;;;;4983139;28;20050;-83
2022/03/22 11:02:41;;;;;;;17.70;11.77;;;589.10;793.60;;;;;;4980778;28;20484;-82
2022/03/22 11:05:08;;;;;;;17.58;11.48;;;589.30;793.60;;;;;;4998550;28;20033;-83
2022/03/22 11:07:35;;;;;;;27.58;13.52;;;589.60;793.60;;;;;;5001764;28;20030;-81
2022/03/22 11:10:01;;;;;;;18.95;12.75;;;589.20;793.60;;;;;;4981209;28;20055;-82
2022/03/22 11:12:28;;;;;;;17.85;12.48;;;589.30;793.60;;;;;;4989711;28;20468;-81
2022/03/22 11:14:55;;;;;;;12.68;10.90;;;589.30;793.60;;;;;;4987423;28;20495;-82
2022/03/22 11:17:24;;;;;;;15.38;12.55;;;589.60;768.00;;;;;;5000258;28;20041;-82
2022/03/22 11:19:50;;;;;;;19.17;12.40;;;589.60;768.00;;;;;;4999943;28;20037;-82
2022/03/22 11:22:19;;;;;;;17.48;13.25;;;589.60;768.00;;;;;;5004305;28;20046;-82
2022/03/22 11:24:44;;;;;;;15.38;10.88;;;615.00;742.40;;;;;;5006614;28;20431;-81
2022/03/22 11:27:11;;;;;;;16.42;11.65;;;614.80;742.40;;;;;;5001141;28;20064;-82
2022/03/22 11:29:41;;;;;;;23.40;13.07;;;614.60;768.00;;;;;;4983379;28;20022;-83
2022/03/22 11:35:00;;;;;;;17.05;11.95;;;615.30;742.40;;;;;;4992581;28;20053;-77
2022/03/22 11:37:31;;;;;;;17.10;11.02;;;615.00;742.40;;;;;;5000139;28;20088;-76
2022/03/22 11:42:57;;;;;;;17.88;11.20;;;614.80;742.40;;;;;;5000166;28;20054;-77
2022/03/22 11:45:24;;;;;;;15.63;11.57;;;640.00;716.80;;;;;;4977748;28;20034;-76
2022/03/22 11:47:54;;;;;;;16.10;10.18;;;615.30;716.80;;;;;;4996975;28;20037;-77
2022/03/22 11:50:22;;;;;;;15.38;11.00;;;640.00;716.80;;;;;;5006726;28;20050;-81
2022/03/22 11:52:54;;;;;;;19.08;11.55;;;614.90;742.40;;;;;;5003053;28;20859;-80
2022/03/22 11:55:26;;;;;;;14.85;9.43;;;614.90;742.40;;;;;;4991834;28;20026;-82
2022/03/22 11:57:56;;;;;;;13.23;9.80;;;614.80;742.40;;;;;;4992569;28;20053;-81
2022/03/22 12:00:43;;;;;;;17.55;12.07;;;615.00;742.40;;;;;;4997432;28;20383;-85
2022/03/22 12:03:14;;;;;;;15.13;10.65;;;640.00;742.40;;;;;;4997722;28;20073;-82
2022/03/22 12:05:41;;;;;;;12.40;9.80;;;615.30;742.40;;;;;;4993132;28;20022;-82
2022/03/22 12:08:09;;;;;;;19.92;10.77;;;640.20;742.40;;;;;;5013792;28;20034;-82
2022/03/22 12:10:35;;;;;;;15.45;9.60;;;640.70;742.40;;;;;;4998908;28;20033;-83
2022/03/22 12:13:01;;;;;;;15.38;11.27;;;640.20;742.40;;;;;;4983827;28;20081;-83
2022/03/22 12:15:27;;;;;;;14.10;9.52;;;640.10;742.40;;;;;;5004733;28;20483;-82
2022/03/22 12:17:53;;;;;;;15.40;9.75;;;640.30;716.80;;;;;;4989185;28;20038;-82
2022/03/22 12:20:22;;;;;;;12.85;9.20;;;640.00;742.40;;;;;;4983962;28;20042;-77
2022/03/22 12:22:59;;;;;;;20.63;11.90;;;615.30;742.40;;;;;;5009607;28;20034;-80
2022/03/22 12:25:31;;;;;;;13.13;9.50;;;640.40;716.80;;;;;;4993613;28;20447;-82
2022/03/22 12:28:09;;;;;;;12.25;8.90;;;640.70;716.80;;;;;;4994005;28;20033;-84
2022/03/22 12:30:42;;;;;;;13.02;8.95;;;640.00;716.80;;;;;;4993826;28;20391;-83
2022/03/22 12:33:14;;;;;;;12.68;9.95;;;640.00;742.40;;;;;;4992407;28;20034;-82
2022/03/22 12:35:42;;;;;;;14.15;9.63;;;640.10;742.40;;;;;;4993443;28;20501;-83
2022/03/22 12:38:09;;;;;;;13.65;8.57;;;640.10;742.40;;;;;;4993716;28;20038;-81
2022/03/22 12:40:36;;;;;;;13.02;9.65;;;640.00;742.40;;;;;;4993390;28;20037;-81
2022/03/22 12:43:04;;;;;;;16.00;9.20;;;640.10;742.40;;;;;;4994783;28;20129;-82
2022/03/22 12:45:33;;;;;;;14.35;9.32;;;615.10;742.40;;;;;;4976335;28;20030;-81
2022/03/22 12:48:00;;;;;;;13.68;9.40;;;640.40;742.40;;;;;;4969035;28;20046;-82